createdAt,value
2018-12-19T00:01:54.439Z,83.77
2018-12-19T00:04:59.699Z,67.20
2018-12-19T00:08:04.934Z,99.93
2018-12-19T00:11:08.134Z,96.73
2018-12-19T00:14:11.534Z,78.23
2018-12-19T00:17:15.787Z,99.80
2018-12-19T00:20:20.295Z,82.07
2018-12-19T00:23:23.468Z,94.50
2018-12-19T00:26:26.663Z,111.77
2018-12-19T00:29:31.927Z,98.77
2018-12-19T00:32:37.361Z,97.00
2018-12-19T00:35:42.602Z,112.07
2018-12-19T00:38:45.790Z,94.33
2018-12-19T00:41:48.983Z,93.63
2018-12-19T00:44:52.185Z,90.33
2018-12-19T00:47:55.370Z,84.27
2018-12-19T00:50:58.570Z,76.87
2018-12-19T00:54:01.869Z,84.67
2018-12-19T00:57:05.066Z,87.10
2018-12-19T01:00:08.706Z,87.50
2018-12-19T01:03:11.963Z,84.07
2018-12-19T01:06:15.287Z,90.83
2018-12-19T01:09:18.454Z,93.77
2018-12-19T01:12:21.646Z,95.00
2018-12-19T01:15:25.051Z,100.60
2018-12-19T01:18:28.348Z,82.43
2018-12-19T01:21:31.543Z,86.57
2018-12-19T01:24:34.742Z,70.90
2018-12-19T01:27:38.559Z,84.93
2018-12-19T01:30:42.159Z,97.60
2018-12-19T01:33:45.350Z,78.87
2018-12-19T01:36:48.547Z,73.47
2018-12-19T01:39:51.749Z,85.20
2018-12-19T01:42:55.719Z,61.43
2018-12-19T01:45:58.950Z,76.87
2018-12-19T01:49:02.143Z,84.67
2018-12-19T01:52:05.343Z,89.93
2018-12-19T01:55:08.527Z,99.57
2018-12-19T01:58:11.773Z,86.37
2018-12-19T02:01:15.016Z,88.97
2018-12-19T02:04:18.210Z,106.00
2018-12-19T02:07:21.403Z,92.80
2018-12-19T02:10:24.608Z,98.30
2018-12-19T02:13:27.796Z,87.00
2018-12-19T02:16:30.990Z,74.33
2018-12-19T02:19:34.187Z,80.03
2018-12-19T02:22:37.385Z,81.13
2018-12-19T02:25:40.578Z,89.33
2018-12-19T02:28:43.769Z,93.33
2018-12-19T02:31:47.113Z,83.60
2018-12-19T02:34:50.367Z,80.07
2018-12-19T02:37:53.602Z,63.53
2018-12-19T02:40:56.859Z,85.07
2018-12-19T02:44:00.305Z,85.87
2018-12-19T02:47:03.551Z,77.67
2018-12-19T02:50:06.779Z,73.57
2018-12-19T02:53:09.939Z,101.40
2018-12-19T02:56:13.220Z,94.73
2018-12-19T02:59:16.435Z,98.03
2018-12-19T03:02:19.655Z,112.33
2018-12-19T03:05:22.827Z,114.20
2018-12-19T03:08:26.054Z,105.73
2018-12-19T03:11:29.214Z,95.23
2018-12-19T03:14:32.435Z,89.47
2018-12-19T03:17:35.700Z,89.23
2018-12-19T03:20:38.934Z,107.50
2018-12-19T03:23:42.197Z,109.97
2018-12-19T03:26:45.519Z,95.80
2018-12-19T03:29:48.788Z,107.90
2018-12-19T03:32:52.027Z,81.00
2018-12-19T03:35:55.183Z,76.03
2018-12-19T03:38:58.437Z,76.57
2018-12-19T03:42:01.676Z,72.83
2018-12-19T03:45:05.818Z,80.93
2018-12-19T03:48:13.426Z,83.10
2018-12-19T03:51:17.320Z,82.33
2018-12-19T03:54:21.048Z,104.73
2018-12-19T03:57:25.417Z,99.53
2018-12-19T04:00:28.830Z,119.07
2018-12-19T04:03:33.106Z,101.33
2018-12-19T04:06:36.329Z,104.27
2018-12-19T04:09:39.485Z,102.77
2018-12-19T04:12:43.185Z,112.43
2018-12-19T04:15:46.301Z,98.53
2018-12-19T04:18:49.726Z,132.67
2018-12-19T04:21:52.999Z,121.27
2018-12-19T04:24:57.599Z,114.53
2018-12-19T04:28:01.683Z,141.03
2018-12-19T04:31:04.971Z,142.63
2018-12-19T04:34:09.152Z,157.77
2018-12-19T04:37:12.422Z,163.20
2018-12-19T04:40:15.650Z,181.53
2018-12-19T04:43:18.973Z,175.97
2018-12-19T04:46:22.302Z,183.40
2018-12-19T04:49:26.534Z,160.97
2018-12-19T04:52:29.692Z,173.03
2018-12-19T04:55:32.883Z,156.50
2018-12-19T04:58:36.045Z,155.50
2018-12-19T05:01:39.289Z,137.20
2018-12-19T05:04:42.442Z,143.57
2018-12-19T05:07:45.813Z,146.80
2018-12-19T05:10:49.040Z,158.63
2018-12-19T05:13:52.582Z,133.73
2018-12-19T05:16:55.730Z,127.63
2018-12-19T05:19:59.306Z,127.30
2018-12-19T05:23:03.150Z,120.30
2018-12-19T05:26:06.533Z,113.30
2018-12-19T05:29:09.738Z,133.00
2018-12-19T05:32:12.965Z,135.10
2018-12-19T05:35:16.110Z,130.63
2018-12-19T05:38:19.454Z,125.70
2018-12-19T05:41:22.621Z,136.33
2018-12-19T05:44:25.817Z,126.73
2018-12-19T05:47:29.357Z,115.93
2018-12-19T05:50:32.657Z,135.17
2018-12-19T05:53:35.813Z,155.53
2018-12-19T05:56:39.005Z,141.83
2018-12-19T05:59:42.559Z,143.33
2018-12-19T06:02:45.709Z,128.20
2018-12-19T06:05:49.050Z,110.57
2018-12-19T06:08:52.337Z,120.83
2018-12-19T06:11:55.498Z,121.83
2018-12-19T06:14:58.686Z,103.80
2018-12-19T06:18:01.885Z,116.13
2018-12-19T06:21:05.081Z,122.87
2018-12-19T06:24:08.269Z,115.63
2018-12-19T06:27:12.186Z,108.33
2018-12-19T06:30:18.086Z,105.67
2018-12-19T06:33:21.251Z,95.50
2018-12-19T06:36:24.458Z,88.83
2018-12-19T06:39:27.777Z,110.20
2018-12-19T06:42:30.902Z,98.40
2018-12-19T06:45:34.121Z,102.30
2018-12-19T06:48:37.315Z,97.17
2018-12-19T06:51:40.509Z,92.40
2018-12-19T06:54:43.806Z,93.90
2018-12-19T06:57:47.005Z,96.97
2018-12-19T07:00:50.197Z,102.10
2018-12-19T07:03:53.394Z,98.50
2018-12-19T07:06:56.586Z,95.93
2018-12-19T07:09:59.782Z,89.37
2018-12-19T07:13:02.977Z,101.30
2018-12-19T07:16:06.169Z,101.67
2018-12-19T07:19:09.470Z,108.80
2018-12-19T07:22:12.665Z,99.07
2018-12-19T07:25:15.862Z,111.23
2018-12-19T07:28:19.765Z,93.67
2018-12-19T07:31:22.992Z,90.93
2018-12-19T07:34:26.168Z,93.67
2018-12-19T07:37:29.366Z,100.90
2018-12-19T07:40:32.554Z,98.50
2018-12-19T07:43:35.750Z,90.23
2018-12-19T07:46:38.945Z,91.90
2018-12-19T07:49:42.150Z,92.77
2018-12-19T07:52:45.486Z,96.87
2018-12-19T07:55:49.125Z,104.57
2018-12-19T07:58:52.441Z,95.83
2018-12-19T08:01:55.782Z,91.37
2018-12-19T08:04:58.957Z,91.80
2018-12-19T08:08:02.158Z,104.33
2018-12-19T08:11:05.326Z,95.73
2018-12-19T08:14:08.555Z,91.33
2018-12-19T08:17:11.698Z,83.23
2018-12-19T08:20:14.918Z,97.17
2018-12-19T08:23:18.101Z,99.50
2018-12-19T08:26:21.553Z,84.40
2018-12-19T08:29:24.698Z,90.73
2018-12-19T08:32:28.025Z,82.37
2018-12-19T08:35:31.194Z,84.07
2018-12-19T08:38:34.532Z,83.70
2018-12-19T08:41:39.370Z,84.27
2018-12-19T08:44:42.557Z,84.77
2018-12-19T08:47:45.725Z,78.20
2018-12-19T08:50:48.945Z,77.83
2018-12-19T08:53:52.087Z,77.80
2018-12-19T08:56:55.350Z,74.40
2018-12-19T08:59:58.497Z,72.10
2018-12-19T09:03:01.724Z,78.63
2018-12-19T09:06:04.885Z,79.00
2018-12-19T09:09:08.117Z,82.67
2018-12-19T09:12:11.280Z,74.50
2018-12-19T09:15:19.937Z,80.10
2018-12-19T09:18:23.294Z,75.23
2018-12-19T09:21:26.527Z,73.63
2018-12-19T09:24:29.691Z,70.87
2018-12-19T09:27:32.919Z,79.33
2018-12-19T09:30:36.282Z,69.07
2018-12-19T09:33:39.518Z,74.83
2018-12-19T09:36:42.693Z,70.07
2018-12-19T09:39:46.026Z,73.77
2018-12-19T09:42:49.167Z,67.60
2018-12-19T09:45:52.397Z,69.23
2018-12-19T09:48:55.591Z,68.87
2018-12-19T09:51:58.782Z,65.00
2018-12-19T09:55:01.942Z,61.87
2018-12-19T09:58:05.244Z,71.70
2018-12-19T10:01:08.967Z,57.53
2018-12-19T10:04:12.179Z,63.37
2018-12-19T10:07:15.584Z,67.10
2018-12-19T10:10:18.795Z,69.30
2018-12-19T10:13:23.043Z,60.70
2018-12-19T10:16:26.207Z,64.63
2018-12-19T10:19:29.436Z,68.27
2018-12-19T10:22:33.008Z,65.50
2018-12-19T10:25:36.239Z,61.10
2018-12-19T10:28:40.842Z,63.20
2018-12-19T10:31:44.263Z,59.27
2018-12-19T10:34:48.111Z,61.80
2018-12-19T10:37:51.952Z,52.10
2018-12-19T10:40:55.139Z,58.60
2018-12-19T10:43:58.722Z,54.47
2018-12-19T10:47:01.940Z,56.67
2018-12-19T10:50:08.338Z,51.77
2018-12-19T10:53:11.615Z,48.50
2018-12-19T10:56:14.923Z,46.53
2018-12-19T10:59:18.222Z,45.83
2018-12-19T11:02:23.638Z,41.63
2018-12-19T11:05:27.734Z,46.10
2018-12-19T11:08:31.103Z,40.37
2018-12-19T11:11:34.360Z,41.47
2018-12-19T11:14:37.591Z,39.07
2018-12-19T11:17:40.747Z,44.53
2018-12-19T11:20:44.136Z,41.20
2018-12-19T11:23:47.468Z,40.67
2018-12-19T11:26:51.155Z,42.67
2018-12-19T11:29:54.344Z,41.00
2018-12-19T11:32:58.379Z,41.27
2018-12-19T11:36:01.558Z,40.37
2018-12-19T11:39:07.170Z,37.60
2018-12-19T11:42:11.439Z,40.30
2018-12-19T11:45:14.754Z,35.10
2018-12-19T11:48:18.841Z,41.80
2018-12-19T11:51:22.031Z,43.83
2018-12-19T11:54:25.226Z,39.57
2018-12-19T11:57:28.577Z,39.53
2018-12-19T12:00:31.926Z,40.20
2018-12-19T12:03:35.283Z,36.30
2018-12-19T12:06:40.968Z,38.03
2018-12-19T12:09:44.303Z,37.50
2018-12-19T12:12:48.009Z,41.43
2018-12-19T12:15:51.384Z,37.30
2018-12-19T12:18:54.683Z,34.20
2018-12-19T12:21:58.104Z,31.43
2018-12-19T12:25:01.949Z,36.43
2018-12-19T12:28:05.192Z,32.43
2018-12-19T12:31:08.384Z,37.57
2018-12-19T12:34:12.191Z,37.37
2018-12-19T12:37:15.900Z,38.73
2018-12-19T12:40:19.308Z,37.53
2018-12-19T12:43:22.612Z,35.70
2018-12-19T12:46:25.888Z,34.13
2018-12-19T12:49:29.206Z,35.53
2018-12-19T12:52:32.387Z,40.47
2018-12-19T12:55:35.683Z,36.13
2018-12-19T12:58:38.867Z,31.73
2018-12-19T13:01:42.067Z,33.73
2018-12-19T13:04:45.275Z,39.80
2018-12-19T13:07:48.459Z,39.20
2018-12-19T13:10:53.063Z,37.07
2018-12-19T13:13:57.295Z,42.57
2018-12-19T13:17:00.498Z,34.67
2018-12-19T13:20:05.019Z,36.67
2018-12-19T13:23:08.221Z,34.77
2018-12-19T13:26:11.427Z,34.47
2018-12-19T13:29:14.613Z,37.97
2018-12-19T13:32:18.258Z,38.60
2018-12-19T13:35:21.505Z,36.93
2018-12-19T13:38:25.208Z,37.43
2018-12-19T13:41:28.406Z,35.33
2018-12-19T13:44:31.602Z,36.80
2018-12-19T13:47:34.894Z,38.20
2018-12-19T13:50:38.090Z,36.37
2018-12-19T13:53:41.289Z,37.00
2018-12-19T13:56:44.480Z,40.90
2018-12-19T13:59:47.656Z,39.50
2018-12-19T14:02:50.871Z,40.50
2018-12-19T14:05:54.066Z,41.93
2018-12-19T14:08:57.266Z,40.97
2018-12-19T14:12:00.455Z,39.23
2018-12-19T14:15:03.992Z,39.00
2018-12-19T14:18:07.153Z,39.23
2018-12-19T14:21:10.355Z,36.80
2018-12-19T14:24:13.543Z,40.50
2018-12-19T14:27:16.734Z,31.77
2018-12-19T14:30:19.932Z,38.97
2018-12-19T14:33:23.144Z,37.00
2018-12-19T14:36:26.348Z,35.27
2018-12-19T14:39:29.723Z,34.27
2018-12-19T14:42:33.462Z,36.10
2018-12-19T14:45:36.739Z,34.83
2018-12-19T14:48:40.249Z,34.10
2018-12-19T14:51:44.539Z,36.53
2018-12-19T14:54:47.872Z,41.63
2018-12-19T14:57:51.039Z,43.97
2018-12-19T15:00:54.278Z,41.37
2018-12-19T15:03:57.304Z,52.23
2018-12-19T15:07:00.443Z,53.50
2018-12-19T15:10:05.196Z,49.30
2018-12-19T15:13:08.731Z,51.60
2018-12-19T15:16:11.960Z,70.60
2018-12-19T15:19:15.548Z,87.80
2018-12-19T15:22:18.865Z,73.93
2018-12-19T15:25:22.194Z,74.40
2018-12-19T15:28:25.448Z,53.73
2018-12-19T15:31:28.671Z,52.17
2018-12-19T15:34:31.841Z,57.47
2018-12-19T15:37:35.180Z,53.90
2018-12-19T15:40:38.327Z,61.07
2018-12-19T15:43:41.615Z,48.57
2018-12-19T15:46:44.823Z,90.23
2018-12-19T15:49:48.458Z,49.37
2018-12-19T15:52:51.700Z,74.70
2018-12-19T15:55:55.332Z,51.53
2018-12-19T15:58:58.549Z,53.53
2018-12-19T16:02:02.480Z,55.27
2018-12-19T16:05:05.763Z,48.50
2018-12-19T16:08:08.985Z,58.70
2018-12-19T16:11:12.153Z,60.17
2018-12-19T16:14:15.378Z,53.27
2018-12-19T16:17:18.522Z,51.10
2018-12-19T16:20:21.750Z,55.13
2018-12-19T16:23:25.953Z,53.57
2018-12-19T16:26:29.186Z,49.10
2018-12-19T16:29:32.346Z,52.13
2018-12-19T16:32:35.570Z,44.30
2018-12-19T16:35:38.734Z,44.30
2018-12-19T16:38:41.966Z,47.87
2018-12-19T16:41:45.126Z,46.23
2018-12-19T16:44:48.355Z,55.97
2018-12-19T16:47:51.517Z,45.67
2018-12-19T16:50:54.747Z,49.13
2018-12-19T16:53:57.909Z,50.27
2018-12-19T16:57:01.134Z,47.87
2018-12-19T17:00:05.404Z,46.67
2018-12-19T17:03:08.971Z,45.53
2018-12-19T17:06:12.121Z,46.13
2018-12-19T17:09:16.170Z,50.57
2018-12-19T17:12:19.365Z,42.97
2018-12-19T17:15:22.599Z,49.87
2018-12-19T17:18:25.726Z,41.57
2018-12-19T17:21:28.931Z,45.63
2018-12-19T17:24:37.622Z,44.57
2018-12-19T17:27:40.882Z,44.57
2018-12-19T17:30:44.029Z,40.97
2018-12-19T17:33:47.253Z,45.23
2018-12-19T17:36:50.421Z,44.40
2018-12-19T17:39:53.659Z,45.70
2018-12-19T17:42:59.535Z,45.33
2018-12-19T17:46:02.189Z,44.57
2018-12-19T17:49:05.349Z,45.03
2018-12-19T17:52:08.589Z,45.60
2018-12-19T17:55:11.742Z,38.60
2018-12-19T17:58:14.964Z,43.53
2018-12-19T18:01:18.281Z,38.63
2018-12-19T18:04:21.554Z,42.23
2018-12-19T18:07:24.726Z,42.60
2018-12-19T18:10:27.954Z,43.57
2018-12-19T18:13:31.117Z,41.53
2018-12-19T18:16:34.346Z,44.87
2018-12-19T18:19:37.505Z,45.20
2018-12-19T18:22:40.734Z,42.07
2018-12-19T18:25:43.899Z,39.00
2018-12-19T18:28:47.241Z,39.00
2018-12-19T18:31:50.390Z,49.73
2018-12-19T18:34:53.629Z,40.50
2018-12-19T18:37:56.827Z,38.00
2018-12-19T18:41:00.429Z,39.63
2018-12-19T18:44:03.582Z,38.70
2018-12-19T18:47:06.818Z,39.30
2018-12-19T18:50:09.949Z,40.40
2018-12-19T18:53:13.307Z,44.03
2018-12-19T18:56:16.566Z,38.40
2018-12-19T18:59:19.761Z,35.87
2018-12-19T19:02:23.005Z,41.43
2018-12-19T19:05:26.271Z,40.80
2018-12-19T19:08:30.477Z,41.03
2018-12-19T19:11:33.666Z,39.13
2018-12-19T19:14:37.017Z,44.23
2018-12-19T19:17:40.162Z,45.00
2018-12-19T19:20:43.364Z,38.27
2018-12-19T19:23:46.552Z,45.23
2018-12-19T19:26:49.769Z,45.87
2018-12-19T19:29:52.940Z,42.50
2018-12-19T19:32:56.138Z,36.93
2018-12-19T19:35:59.333Z,39.43
2018-12-19T19:39:02.615Z,37.73
2018-12-19T19:42:07.149Z,42.27
2018-12-19T19:45:10.354Z,42.40
2018-12-19T19:48:14.058Z,38.47
2018-12-19T19:51:17.330Z,39.47
2018-12-19T19:54:20.858Z,43.30
2018-12-19T19:57:24.054Z,43.03
2018-12-19T20:00:31.453Z,39.90
2018-12-19T20:03:34.746Z,39.10
2018-12-19T20:06:38.607Z,42.70
2018-12-19T20:09:41.749Z,44.80
2018-12-19T20:12:44.942Z,38.97
2018-12-19T20:15:48.241Z,39.40
2018-12-19T20:18:51.417Z,39.87
2018-12-19T20:21:54.630Z,43.57
2018-12-19T20:24:57.826Z,40.23
2018-12-19T20:28:02.050Z,39.87
2018-12-19T20:31:05.243Z,38.60
2018-12-19T20:34:08.477Z,44.50
2018-12-19T20:37:11.629Z,42.20
2018-12-19T20:40:14.825Z,37.63
2018-12-19T20:43:18.021Z,36.13
2018-12-19T20:46:21.230Z,41.17
2018-12-19T20:49:24.412Z,40.33
2018-12-19T20:52:27.605Z,39.53
2018-12-19T20:55:30.873Z,36.87
2018-12-19T20:58:34.925Z,39.20
2018-12-19T21:01:38.129Z,40.00
2018-12-19T21:04:41.305Z,46.50
2018-12-19T21:07:44.511Z,42.10
2018-12-19T21:10:47.697Z,41.57
2018-12-19T21:13:50.902Z,42.80
2018-12-19T21:16:59.574Z,45.73
2018-12-19T21:20:03.227Z,45.97
2018-12-19T21:23:06.469Z,41.70
2018-12-19T21:26:09.613Z,39.43
2018-12-19T21:29:12.811Z,40.97
2018-12-19T21:32:16.005Z,38.53
2018-12-19T21:35:19.210Z,41.43
2018-12-19T21:38:22.397Z,35.93
2018-12-19T21:41:25.590Z,41.27
2018-12-19T21:44:28.761Z,39.07
2018-12-19T21:47:31.917Z,37.73
2018-12-19T21:50:35.160Z,37.37
2018-12-19T21:53:38.370Z,38.83
2018-12-19T21:56:42.045Z,37.43
2018-12-19T21:59:45.069Z,39.07
2018-12-19T22:02:48.237Z,41.97
2018-12-19T22:05:51.490Z,42.67
2018-12-19T22:08:54.621Z,40.93
2018-12-19T22:11:57.850Z,45.37
2018-12-19T22:15:01.071Z,39.87
2018-12-19T22:18:09.754Z,44.57
2018-12-19T22:21:12.979Z,39.67
2018-12-19T22:24:16.366Z,40.17
2018-12-19T22:27:20.159Z,43.30
2018-12-19T22:30:23.473Z,41.40
2018-12-19T22:33:27.234Z,41.90
2018-12-19T22:36:30.520Z,43.57
2018-12-19T22:39:33.918Z,44.20
2018-12-19T22:42:37.238Z,41.20
2018-12-19T22:45:40.550Z,42.80
2018-12-19T22:48:43.798Z,42.93
2018-12-19T22:51:47.043Z,43.53
2018-12-19T22:54:50.392Z,46.77
2018-12-19T22:57:53.725Z,44.43
2018-12-19T23:01:02.781Z,44.70
2018-12-19T23:04:07.444Z,42.17
2018-12-19T23:07:10.803Z,39.57
2018-12-19T23:10:14.000Z,42.27
2018-12-19T23:13:17.403Z,43.50
2018-12-19T23:16:22.736Z,42.30
2018-12-19T23:19:32.094Z,47.27
2018-12-19T23:22:42.197Z,43.23
2018-12-19T23:25:51.609Z,42.23
2018-12-19T23:29:02.799Z,45.53
2018-12-19T23:32:09.513Z,40.93
2018-12-19T23:35:12.838Z,41.17
2018-12-19T23:38:16.166Z,43.70
2018-12-19T23:41:19.415Z,46.73
2018-12-19T23:44:28.134Z,46.50
2018-12-19T23:47:31.341Z,49.17
2018-12-19T23:50:34.611Z,45.30
2018-12-19T23:53:37.938Z,40.60
2018-12-19T23:56:41.322Z,45.57
2018-12-19T23:59:44.542Z,45.70
